YM Eternity — A8OS6 — position and weather

sailwx.info

Track history (hours):
 
Tides and Currents Weather Stations Pressure Air Temp Water Temp Dewpoint Dewpoint Depression Visibility Wind Speed Wind Dir Waves Ship Positions

YM Eternity

Last reported at 2017-Oct-17 13:58 UTC. Time now 2017-Oct-22 08:08 UTC.
Position N 37°40' E 122°13'.

Length 269 m; draft 10.3 m.

Type: Cargo ship. MMSI: 636013699.

Date/timePositionNaut miles runAvg speedWind from/ knotsBaromVisibWave heightAir tempDewpointWater temp
2017-Oct-17 13:58N 37°40' E 122°13'510.6
2017-Oct-17 13:30N 37°42' E 122°07'510.4
2017-Oct-17 13:00N 37°45' E 122°01'510.2
2017-Oct-17 12:30N 37°47' E 121°55'5 9.9
2017-Oct-17 12:00N 37°49' E 121°50'5 9.8
2017-Oct-17 11:30N 37°51' E 121°44'5 9.9
2017-Oct-17 11:00N 37°52' E 121°38'5 9.9
2017-Oct-17 10:30N 37°53' E 121°32'510.2
2017-Oct-17 10:00N 37°54' E 121°25'5 9.4
2017-Oct-17 09:30N 37°54' E 121°19'5 9.7
2017-Oct-17 09:00N 37°55' E 121°13'611.8
2017-Oct-17 08:30N 37°57' E 121°06'510.7
2017-Oct-17 08:00N 37°58' E 120°59'5 9.8
2017-Oct-17 07:30N 37°59' E 120°53'  
Track history (hours):
 
Tides and Currents Weather Stations Pressure Air Temp Water Temp Dewpoint Dewpoint Depression Visibility Wind Speed Wind Dir Waves Ship Positions

YM Eternity

Last reported at 2017-Oct-17 13:58 UTC. Time now 2017-Oct-22 08:08 UTC.
Position N 37°40' E 122°13'.

Length 269 m; draft 10.3 m.

Type: Cargo ship. MMSI: 636013699.

Date/timePositionNaut miles runAvg speedWind from/ knotsBaromVisibWave heightAir tempDewpointWater temp
2017-Oct-17 13:58N 37°40' E 122°13'510.6
2017-Oct-17 13:30N 37°42' E 122°07'510.4
2017-Oct-17 13:00N 37°45' E 122°01'510.2
2017-Oct-17 12:30N 37°47' E 121°55'5 9.9
2017-Oct-17 12:00N 37°49' E 121°50'5 9.8
2017-Oct-17 11:30N 37°51' E 121°44'5 9.9
2017-Oct-17 11:00N 37°52' E 121°38'5 9.9
2017-Oct-17 10:30N 37°53' E 121°32'510.2
2017-Oct-17 10:00N 37°54' E 121°25'5 9.4
2017-Oct-17 09:30N 37°54' E 121°19'5 9.7
2017-Oct-17 09:00N 37°55' E 121°13'611.8
2017-Oct-17 08:30N 37°57' E 121°06'510.7
2017-Oct-17 08:00N 37°58' E 120°59'5 9.8
2017-Oct-17 07:30N 37°59' E 120°53'  

Dump ship's entire track history